sensor_id;sensor_type;location;lat;lon;timestamp;temperature;humidity
52044;DHT22;38053;53.100;6.078;2022-07-10T00:00:37;14.50;99.90
52044;DHT22;38053;53.100;6.078;2022-07-10T00:03:03;14.50;99.90
52044;DHT22;38053;53.100;6.078;2022-07-10T00:05:30;14.50;99.90
52044;DHT22;38053;53.100;6.078;2022-07-10T00:07:55;14.40;99.90
52044;DHT22;38053;53.100;6.078;2022-07-10T00:10:22;14.30;99.90
52044;DHT22;38053;53.100;6.078;2022-07-10T00:12:51;14.30;99.90
52044;DHT22;38053;53.100;6.078;2022-07-10T00:15:18;14.30;99.90
52044;DHT22;38053;53.100;6.078;2022-07-10T00:17:44;14.20;99.90
52044;DHT22;38053;53.100;6.078;2022-07-10T00:20:11;14.20;99.90
52044;DHT22;38053;53.100;6.078;2022-07-10T00:22:38;14.20;99.90
52044;DHT22;38053;53.100;6.078;2022-07-10T00:25:05;14.20;99.90
52044;DHT22;38053;53.100;6.078;2022-07-10T00:27:31;14.10;99.90
52044;DHT22;38053;53.100;6.078;2022-07-10T00:29:57;14.10;99.90
52044;DHT22;38053;53.100;6.078;2022-07-10T00:32:24;14.10;99.90
52044;DHT22;38053;53.100;6.078;2022-07-10T00:34:50;14.00;99.90
52044;DHT22;38053;53.100;6.078;2022-07-10T00:37:16;14.00;99.90
52044;DHT22;38053;53.100;6.078;2022-07-10T00:39:42;14.00;99.90
52044;DHT22;38053;53.100;6.078;2022-07-10T00:42:09;14.00;99.90
52044;DHT22;38053;53.100;6.078;2022-07-10T00:44:35;14.00;99.90
52044;DHT22;38053;53.100;6.078;2022-07-10T00:47:05;14.00;99.90
52044;DHT22;38053;53.100;6.078;2022-07-10T00:49:32;14.00;99.90
52044;DHT22;38053;53.100;6.078;2022-07-10T00:51:59;14.00;99.90
52044;DHT22;38053;53.100;6.078;2022-07-10T00:54:25;14.10;99.90
52044;DHT22;38053;53.100;6.078;2022-07-10T00:56:51;14.10;99.90
52044;DHT22;38053;53.100;6.078;2022-07-10T00:59:18;14.10;99.90
52044;DHT22;38053;53.100;6.078;2022-07-10T01:01:44;14.10;99.90
52044;DHT22;38053;53.100;6.078;2022-07-10T01:04:10;14.20;99.90
52044;DHT22;38053;53.100;6.078;2022-07-10T01:06:36;14.20;99.90
52044;DHT22;38053;53.100;6.078;2022-07-10T01:09:02;14.30;99.90
52044;DHT22;38053;53.100;6.078;2022-07-10T01:11:29;14.30;99.90
52044;DHT22;38053;53.100;6.078;2022-07-10T01:13:55;14.20;99.90
52044;DHT22;38053;53.100;6.078;2022-07-10T01:16:21;14.20;99.90
52044;DHT22;38053;53.100;6.078;2022-07-10T01:18:47;14.20;99.90
52044;DHT22;38053;53.100;6.078;2022-07-10T01:21:30;14.10;99.90
52044;DHT22;38053;53.100;6.078;2022-07-10T01:23:57;14.10;99.90
52044;DHT22;38053;53.100;6.078;2022-07-10T01:26:23;14.10;99.90
52044;DHT22;38053;53.100;6.078;2022-07-10T01:28:53;14.10;99.90
52044;DHT22;38053;53.100;6.078;2022-07-10T01:31:26;14.10;99.90
52044;DHT22;38053;53.100;6.078;2022-07-10T01:33:55;14.10;99.90
52044;DHT22;38053;53.100;6.078;2022-07-10T01:36:21;14.10;99.90
52044;DHT22;38053;53.100;6.078;2022-07-10T01:38:48;14.10;99.90
52044;DHT22;38053;53.100;6.078;2022-07-10T01:41:16;14.20;99.90
52044;DHT22;38053;53.100;6.078;2022-07-10T01:43:41;14.20;99.90
52044;DHT22;38053;53.100;6.078;2022-07-10T01:46:09;14.20;99.90
52044;DHT22;38053;53.100;6.078;2022-07-10T01:48:37;14.10;99.90
52044;DHT22;38053;53.100;6.078;2022-07-10T01:51:03;14.10;99.90
52044;DHT22;38053;53.100;6.078;2022-07-10T01:53:29;14.10;99.90
52044;DHT22;38053;53.100;6.078;2022-07-10T01:55:55;14.00;99.90
52044;DHT22;38053;53.100;6.078;2022-07-10T01:58:20;14.00;99.90
52044;DHT22;38053;53.100;6.078;2022-07-10T02:00:46;14.00;99.90
52044;DHT22;38053;53.100;6.078;2022-07-10T02:03:12;13.90;99.90
52044;DHT22;38053;53.100;6.078;2022-07-10T02:05:56;13.90;99.90
52044;DHT22;38053;53.100;6.078;2022-07-10T02:08:22;13.90;99.90
52044;DHT22;38053;53.100;6.078;2022-07-10T02:10:47;13.90;99.90
52044;DHT22;38053;53.100;6.078;2022-07-10T02:13:13;13.90;99.90
52044;DHT22;38053;53.100;6.078;2022-07-10T02:15:40;13.90;99.90
52044;DHT22;38053;53.100;6.078;2022-07-10T02:18:07;13.90;99.90
52044;DHT22;38053;53.100;6.078;2022-07-10T02:20:32;13.90;99.90
52044;DHT22;38053;53.100;6.078;2022-07-10T02:23:00;13.90;99.90
52044;DHT22;38053;53.100;6.078;2022-07-10T02:25:25;13.90;99.90
52044;DHT22;38053;53.100;6.078;2022-07-10T02:27:51;13.90;99.90
52044;DHT22;38053;53.100;6.078;2022-07-10T02:30:17;13.90;99.90
52044;DHT22;38053;53.100;6.078;2022-07-10T02:32:42;13.90;99.90
52044;DHT22;38053;53.100;6.078;2022-07-10T02:35:09;14.00;99.90
52044;DHT22;38053;53.100;6.078;2022-07-10T02:37:35;14.00;99.90
52044;DHT22;38053;53.100;6.078;2022-07-10T02:40:01;14.00;99.90
52044;DHT22;38053;53.100;6.078;2022-07-10T02:42:26;14.10;99.90
52044;DHT22;38053;53.100;6.078;2022-07-10T02:44:52;14.10;99.90
52044;DHT22;38053;53.100;6.078;2022-07-10T02:47:17;14.10;99.90
52044;DHT22;38053;53.100;6.078;2022-07-10T02:49:43;14.10;99.90
52044;DHT22;38053;53.100;6.078;2022-07-10T02:52:09;14.20;99.90
52044;DHT22;38053;53.100;6.078;2022-07-10T02:54:35;14.20;99.90
52044;DHT22;38053;53.100;6.078;2022-07-10T02:57:01;14.20;99.90
52044;DHT22;38053;53.100;6.078;2022-07-10T02:59:27;14.30;99.90
52044;DHT22;38053;53.100;6.078;2022-07-10T03:01:53;14.30;99.90
52044;DHT22;38053;53.100;6.078;2022-07-10T03:04:18;14.30;99.90
52044;DHT22;38053;53.100;6.078;2022-07-10T03:06:44;14.30;99.90
52044;DHT22;38053;53.100;6.078;2022-07-10T03:09:11;14.30;99.90
52044;DHT22;38053;53.100;6.078;2022-07-10T03:11:36;14.40;99.90
52044;DHT22;38053;53.100;6.078;2022-07-10T03:14:02;14.40;99.90
52044;DHT22;38053;53.100;6.078;2022-07-10T03:16:28;14.40;99.90
52044;DHT22;38053;53.100;6.078;2022-07-10T03:18:53;14.50;99.90
52044;DHT22;38053;53.100;6.078;2022-07-10T03:21:19;14.50;99.90
52044;DHT22;38053;53.100;6.078;2022-07-10T03:23:45;14.50;99.90
52044;DHT22;38053;53.100;6.078;2022-07-10T03:26:10;14.50;99.90
52044;DHT22;38053;53.100;6.078;2022-07-10T03:28:36;14.50;99.90
52044;DHT22;38053;53.100;6.078;2022-07-10T03:31:01;14.50;99.90
52044;DHT22;38053;53.100;6.078;2022-07-10T03:33:27;14.60;99.90
52044;DHT22;38053;53.100;6.078;2022-07-10T03:35:54;14.60;99.90
52044;DHT22;38053;53.100;6.078;2022-07-10T03:38:20;14.60;99.90
52044;DHT22;38053;53.100;6.078;2022-07-10T03:40:45;14.60;99.90
52044;DHT22;38053;53.100;6.078;2022-07-10T03:43:14;14.60;99.90
52044;DHT22;38053;53.100;6.078;2022-07-10T03:45:40;14.60;99.90
52044;DHT22;38053;53.100;6.078;2022-07-10T03:48:06;14.60;99.90
52044;DHT22;38053;53.100;6.078;2022-07-10T03:50:32;14.60;99.90
52044;DHT22;38053;53.100;6.078;2022-07-10T03:52:58;14.60;99.90
52044;DHT22;38053;53.100;6.078;2022-07-10T03:55:24;14.70;99.90
52044;DHT22;38053;53.100;6.078;2022-07-10T03:57:50;14.60;99.90
52044;DHT22;38053;53.100;6.078;2022-07-10T04:00:29;14.70;99.90
52044;DHT22;38053;53.100;6.078;2022-07-10T04:03:05;14.60;99.90
52044;DHT22;38053;53.100;6.078;2022-07-10T04:05:32;14.60;99.90
52044;DHT22;38053;53.100;6.078;2022-07-10T04:07:59;14.60;99.90
52044;DHT22;38053;53.100;6.078;2022-07-10T04:10:26;14.60;99.90
52044;DHT22;38053;53.100;6.078;2022-07-10T04:12:52;14.60;99.90
52044;DHT22;38053;53.100;6.078;2022-07-10T04:15:18;14.60;99.90
52044;DHT22;38053;53.100;6.078;2022-07-10T04:17:44;14.60;99.90
52044;DHT22;38053;53.100;6.078;2022-07-10T04:20:10;14.60;99.90
52044;DHT22;38053;53.100;6.078;2022-07-10T04:22:36;14.60;99.90
52044;DHT22;38053;53.100;6.078;2022-07-10T04:25:03;14.70;99.90
52044;DHT22;38053;53.100;6.078;2022-07-10T04:27:29;14.70;99.90
52044;DHT22;38053;53.100;6.078;2022-07-10T04:29:55;14.70;99.90
52044;DHT22;38053;53.100;6.078;2022-07-10T04:32:21;14.70;99.90
52044;DHT22;38053;53.100;6.078;2022-07-10T04:34:47;14.70;99.90
52044;DHT22;38053;53.100;6.078;2022-07-10T04:37:13;14.70;99.90
52044;DHT22;38053;53.100;6.078;2022-07-10T04:39:39;14.70;99.90
52044;DHT22;38053;53.100;6.078;2022-07-10T04:42:05;14.70;99.90
52044;DHT22;38053;53.100;6.078;2022-07-10T04:44:32;14.70;99.90
52044;DHT22;38053;53.100;6.078;2022-07-10T04:46:58;14.70;99.90
52044;DHT22;38053;53.100;6.078;2022-07-10T04:49:24;14.70;99.90
52044;DHT22;38053;53.100;6.078;2022-07-10T04:51:50;14.70;99.90
52044;DHT22;38053;53.100;6.078;2022-07-10T04:54:16;14.70;99.90
52044;DHT22;38053;53.100;6.078;2022-07-10T04:56:41;14.70;99.90
52044;DHT22;38053;53.100;6.078;2022-07-10T04:59:07;14.70;99.90
52044;DHT22;38053;53.100;6.078;2022-07-10T05:01:33;14.60;99.90
52044;DHT22;38053;53.100;6.078;2022-07-10T05:03:59;14.70;99.90
52044;DHT22;38053;53.100;6.078;2022-07-10T05:06:24;14.70;99.90
52044;DHT22;38053;53.100;6.078;2022-07-10T05:08:50;14.60;99.90
52044;DHT22;38053;53.100;6.078;2022-07-10T05:11:16;14.70;99.90
52044;DHT22;38053;53.100;6.078;2022-07-10T05:13:41;14.70;99.90
52044;DHT22;38053;53.100;6.078;2022-07-10T05:16:10;14.70;99.90
52044;DHT22;38053;53.100;6.078;2022-07-10T05:18:38;14.70;99.90
52044;DHT22;38053;53.100;6.078;2022-07-10T05:21:04;14.70;99.90
52044;DHT22;38053;53.100;6.078;2022-07-10T05:23:30;14.80;99.90
52044;DHT22;38053;53.100;6.078;2022-07-10T05:25:56;14.80;99.90
52044;DHT22;38053;53.100;6.078;2022-07-10T05:28:22;14.80;99.90
52044;DHT22;38053;53.100;6.078;2022-07-10T05:30:48;14.90;99.90
52044;DHT22;38053;53.100;6.078;2022-07-10T05:33:15;14.90;99.90
52044;DHT22;38053;53.100;6.078;2022-07-10T05:35:41;14.90;99.90
52044;DHT22;38053;53.100;6.078;2022-07-10T05:38:06;15.00;99.90
52044;DHT22;38053;53.100;6.078;2022-07-10T05:40:32;15.00;99.90
52044;DHT22;38053;53.100;6.078;2022-07-10T05:42:58;15.10;99.90
52044;DHT22;38053;53.100;6.078;2022-07-10T05:45:24;15.10;99.90
52044;DHT22;38053;53.100;6.078;2022-07-10T05:47:50;15.10;99.90
52044;DHT22;38053;53.100;6.078;2022-07-10T05:50:15;15.10;99.90
52044;DHT22;38053;53.100;6.078;2022-07-10T05:52:41;15.10;99.90
52044;DHT22;38053;53.100;6.078;2022-07-10T05:55:08;15.10;99.90
52044;DHT22;38053;53.100;6.078;2022-07-10T05:57:34;15.10;99.90
52044;DHT22;38053;53.100;6.078;2022-07-10T06:00:00;15.10;99.90
52044;DHT22;38053;53.100;6.078;2022-07-10T06:02:26;15.10;99.90
52044;DHT22;38053;53.100;6.078;2022-07-10T06:04:52;15.10;99.90
52044;DHT22;38053;53.100;6.078;2022-07-10T06:07:18;15.10;99.90
52044;DHT22;38053;53.100;6.078;2022-07-10T06:09:44;15.10;99.90
52044;DHT22;38053;53.100;6.078;2022-07-10T06:12:09;15.10;99.90
52044;DHT22;38053;53.100;6.078;2022-07-10T06:14:35;15.10;99.90
52044;DHT22;38053;53.100;6.078;2022-07-10T06:17:01;15.10;99.90
52044;DHT22;38053;53.100;6.078;2022-07-10T06:19:27;15.10;99.90
52044;DHT22;38053;53.100;6.078;2022-07-10T06:21:52;15.10;99.90
52044;DHT22;38053;53.100;6.078;2022-07-10T06:24:38;15.10;99.90
52044;DHT22;38053;53.100;6.078;2022-07-10T06:27:05;15.10;99.90
52044;DHT22;38053;53.100;6.078;2022-07-10T06:29:31;15.10;99.90
52044;DHT22;38053;53.100;6.078;2022-07-10T06:31:56;15.20;99.90
52044;DHT22;38053;53.100;6.078;2022-07-10T06:34:22;15.20;99.90
52044;DHT22;38053;53.100;6.078;2022-07-10T06:36:48;15.20;99.90
52044;DHT22;38053;53.100;6.078;2022-07-10T06:39:14;15.20;99.90
52044;DHT22;38053;53.100;6.078;2022-07-10T06:41:39;15.20;99.90
52044;DHT22;38053;53.100;6.078;2022-07-10T06:44:05;15.20;99.90
52044;DHT22;38053;53.100;6.078;2022-07-10T06:46:32;15.20;99.90
52044;DHT22;38053;53.100;6.078;2022-07-10T06:48:58;15.20;99.90
52044;DHT22;38053;53.100;6.078;2022-07-10T06:51:24;15.20;99.90
52044;DHT22;38053;53.100;6.078;2022-07-10T06:53:50;15.30;99.90
52044;DHT22;38053;53.100;6.078;2022-07-10T06:56:16;15.30;99.90
52044;DHT22;38053;53.100;6.078;2022-07-10T06:58:42;15.40;99.90
52044;DHT22;38053;53.100;6.078;2022-07-10T07:01:08;15.40;99.90
52044;DHT22;38053;53.100;6.078;2022-07-10T07:03:33;15.50;99.90
52044;DHT22;38053;53.100;6.078;2022-07-10T07:05:59;15.50;99.90
52044;DHT22;38053;53.100;6.078;2022-07-10T07:08:25;15.50;99.90
52044;DHT22;38053;53.100;6.078;2022-07-10T07:10:50;15.60;99.90
52044;DHT22;38053;53.100;6.078;2022-07-10T07:13:16;15.60;99.90
52044;DHT22;38053;53.100;6.078;2022-07-10T07:15:42;15.70;99.90
52044;DHT22;38053;53.100;6.078;2022-07-10T07:18:12;15.70;99.90
52044;DHT22;38053;53.100;6.078;2022-07-10T07:20:41;15.60;99.90
52044;DHT22;38053;53.100;6.078;2022-07-10T07:23:26;15.70;99.90
52044;DHT22;38053;53.100;6.078;2022-07-10T07:25:52;15.70;99.90
52044;DHT22;38053;53.100;6.078;2022-07-10T07:28:18;15.70;99.90
52044;DHT22;38053;53.100;6.078;2022-07-10T07:30:45;15.80;99.90
52044;DHT22;38053;53.100;6.078;2022-07-10T07:33:11;15.80;99.90
52044;DHT22;38053;53.100;6.078;2022-07-10T07:35:38;15.80;99.90
52044;DHT22;38053;53.100;6.078;2022-07-10T07:38:04;15.80;99.90
52044;DHT22;38053;53.100;6.078;2022-07-10T07:40:31;15.80;99.90
52044;DHT22;38053;53.100;6.078;2022-07-10T07:42:57;15.80;99.90
52044;DHT22;38053;53.100;6.078;2022-07-10T07:45:24;15.80;99.90
52044;DHT22;38053;53.100;6.078;2022-07-10T07:47:57;15.80;99.90
52044;DHT22;38053;53.100;6.078;2022-07-10T07:50:27;15.80;99.90
52044;DHT22;38053;53.100;6.078;2022-07-10T07:52:54;15.70;99.90
52044;DHT22;38053;53.100;6.078;2022-07-10T07:55:21;15.70;99.90
52044;DHT22;38053;53.100;6.078;2022-07-10T07:57:47;15.70;99.90
52044;DHT22;38053;53.100;6.078;2022-07-10T08:00:16;15.60;99.90
52044;DHT22;38053;53.100;6.078;2022-07-10T08:02:42;15.70;99.90
52044;DHT22;38053;53.100;6.078;2022-07-10T08:05:09;15.70;99.90
52044;DHT22;38053;53.100;6.078;2022-07-10T08:07:36;15.70;99.90
52044;DHT22;38053;53.100;6.078;2022-07-10T08:10:08;15.70;99.90
52044;DHT22;38053;53.100;6.078;2022-07-10T08:12:34;15.70;99.90
52044;DHT22;38053;53.100;6.078;2022-07-10T08:14:59;15.80;99.90
52044;DHT22;38053;53.100;6.078;2022-07-10T08:17:26;15.80;99.90
52044;DHT22;38053;53.100;6.078;2022-07-10T08:19:52;15.80;99.90
52044;DHT22;38053;53.100;6.078;2022-07-10T08:22:18;15.90;99.90
52044;DHT22;38053;53.100;6.078;2022-07-10T08:24:44;16.00;99.90
52044;DHT22;38053;53.100;6.078;2022-07-10T08:27:09;16.00;99.90
52044;DHT22;38053;53.100;6.078;2022-07-10T08:29:35;16.10;99.90
52044;DHT22;38053;53.100;6.078;2022-07-10T08:32:01;16.10;99.90
52044;DHT22;38053;53.100;6.078;2022-07-10T08:34:27;16.20;99.90
52044;DHT22;38053;53.100;6.078;2022-07-10T08:36:55;16.20;99.90
52044;DHT22;38053;53.100;6.078;2022-07-10T08:39:20;16.20;99.90
52044;DHT22;38053;53.100;6.078;2022-07-10T08:41:47;16.30;99.90
52044;DHT22;38053;53.100;6.078;2022-07-10T08:44:16;16.30;99.90
52044;DHT22;38053;53.100;6.078;2022-07-10T08:46:43;16.30;99.90
52044;DHT22;38053;53.100;6.078;2022-07-10T08:49:10;16.40;99.90
52044;DHT22;38053;53.100;6.078;2022-07-10T08:54:56;16.40;99.90
52044;DHT22;38053;53.100;6.078;2022-07-10T08:57:23;16.40;99.90
52044;DHT22;38053;53.100;6.078;2022-07-10T08:59:49;16.50;99.90
52044;DHT22;38053;53.100;6.078;2022-07-10T09:02:15;16.50;99.90
52044;DHT22;38053;53.100;6.078;2022-07-10T09:04:41;16.60;99.90
52044;DHT22;38053;53.100;6.078;2022-07-10T09:07:07;16.80;99.90
52044;DHT22;38053;53.100;6.078;2022-07-10T09:09:53;16.90;99.90
52044;DHT22;38053;53.100;6.078;2022-07-10T09:12:24;17.00;99.90
52044;DHT22;38053;53.100;6.078;2022-07-10T09:14:50;17.10;99.90
52044;DHT22;38053;53.100;6.078;2022-07-10T09:17:17;17.00;99.90
52044;DHT22;38053;53.100;6.078;2022-07-10T09:19:43;17.00;99.90
52044;DHT22;38053;53.100;6.078;2022-07-10T09:22:10;17.00;99.90
52044;DHT22;38053;53.100;6.078;2022-07-10T09:24:44;16.90;99.90
52044;DHT22;38053;53.100;6.078;2022-07-10T09:27:14;16.90;99.90
52044;DHT22;38053;53.100;6.078;2022-07-10T09:29:51;16.90;99.90
52044;DHT22;38053;53.100;6.078;2022-07-10T09:32:20;16.90;99.90
52044;DHT22;38053;53.100;6.078;2022-07-10T09:34:48;16.90;99.90
52044;DHT22;38053;53.100;6.078;2022-07-10T09:45:15;16.70;99.90
52044;DHT22;38053;53.100;6.078;2022-07-10T09:48:02;16.80;99.90
52044;DHT22;38053;53.100;6.078;2022-07-10T09:50:35;16.80;99.90
52044;DHT22;38053;53.100;6.078;2022-07-10T09:53:06;16.80;99.90
52044;DHT22;38053;53.100;6.078;2022-07-10T09:55:36;16.80;99.90
52044;DHT22;38053;53.100;6.078;2022-07-10T09:58:08;16.90;99.90
52044;DHT22;38053;53.100;6.078;2022-07-10T10:00:43;17.10;99.90
52044;DHT22;38053;53.100;6.078;2022-07-10T10:03:14;17.30;99.90
52044;DHT22;38053;53.100;6.078;2022-07-10T10:05:54;17.30;99.90
52044;DHT22;38053;53.100;6.078;2022-07-10T10:08:43;17.40;99.90
52044;DHT22;38053;53.100;6.078;2022-07-10T10:11:14;17.30;99.90
52044;DHT22;38053;53.100;6.078;2022-07-10T10:13:41;17.20;99.90
52044;DHT22;38053;53.100;6.078;2022-07-10T10:16:08;17.30;99.90
52044;DHT22;38053;53.100;6.078;2022-07-10T10:18:36;17.30;99.90
52044;DHT22;38053;53.100;6.078;2022-07-10T10:21:02;17.40;99.90
52044;DHT22;38053;53.100;6.078;2022-07-10T10:23:32;17.40;99.90
52044;DHT22;38053;53.100;6.078;2022-07-10T10:25:59;17.60;99.90
52044;DHT22;38053;53.100;6.078;2022-07-10T10:28:25;17.70;99.90
52044;DHT22;38053;53.100;6.078;2022-07-10T10:30:53;17.80;99.90
52044;DHT22;38053;53.100;6.078;2022-07-10T10:36:02;17.90;99.90
52044;DHT22;38053;53.100;6.078;2022-07-10T10:41:28;17.80;99.90
52044;DHT22;38053;53.100;6.078;2022-07-10T10:46:33;17.60;99.90
52044;DHT22;38053;53.100;6.078;2022-07-10T10:49:06;17.50;99.90
52044;DHT22;38053;53.100;6.078;2022-07-10T10:51:57;17.50;99.90
52044;DHT22;38053;53.100;6.078;2022-07-10T10:54:28;17.50;99.90
52044;DHT22;38053;53.100;6.078;2022-07-10T10:57:16;17.50;99.90
52044;DHT22;38053;53.100;6.078;2022-07-10T10:59:49;17.40;99.90
52044;DHT22;38053;53.100;6.078;2022-07-10T11:04:50;17.30;99.90
52044;DHT22;38053;53.100;6.078;2022-07-10T11:07:51;17.20;99.90
52044;DHT22;38053;53.100;6.078;2022-07-10T11:10:27;17.10;99.90
52044;DHT22;38053;53.100;6.078;2022-07-10T11:13:00;17.00;99.90
52044;DHT22;38053;53.100;6.078;2022-07-10T11:15:27;16.90;99.90
52044;DHT22;38053;53.100;6.078;2022-07-10T11:18:19;16.90;99.90
52044;DHT22;38053;53.100;6.078;2022-07-10T11:20:49;16.90;99.90
52044;DHT22;38053;53.100;6.078;2022-07-10T11:23:29;17.00;99.90
52044;DHT22;38053;53.100;6.078;2022-07-10T11:28:54;17.10;99.90
52044;DHT22;38053;53.100;6.078;2022-07-10T11:31:22;17.30;99.90
52044;DHT22;38053;53.100;6.078;2022-07-10T11:33:50;17.30;99.90
52044;DHT22;38053;53.100;6.078;2022-07-10T11:36:19;17.30;99.90
52044;DHT22;38053;53.100;6.078;2022-07-10T11:38:47;17.30;99.90
52044;DHT22;38053;53.100;6.078;2022-07-10T11:41:15;17.40;99.90
52044;DHT22;38053;53.100;6.078;2022-07-10T11:43:48;17.40;99.90
52044;DHT22;38053;53.100;6.078;2022-07-10T11:46:14;17.50;99.90
52044;DHT22;38053;53.100;6.078;2022-07-10T11:48:40;17.50;99.90
52044;DHT22;38053;53.100;6.078;2022-07-10T11:51:36;17.60;99.90
52044;DHT22;38053;53.100;6.078;2022-07-10T11:54:12;17.70;99.90
52044;DHT22;38053;53.100;6.078;2022-07-10T11:56:49;17.70;99.90
52044;DHT22;38053;53.100;6.078;2022-07-10T11:59:18;17.80;99.90
52044;DHT22;38053;53.100;6.078;2022-07-10T12:01:45;17.80;99.90
52044;DHT22;38053;53.100;6.078;2022-07-10T12:04:13;17.80;99.90
52044;DHT22;38053;53.100;6.078;2022-07-10T12:06:43;17.90;99.90
52044;DHT22;38053;53.100;6.078;2022-07-10T12:09:13;17.90;99.90
52044;DHT22;38053;53.100;6.078;2022-07-10T12:11:40;17.90;99.90
52044;DHT22;38053;53.100;6.078;2022-07-10T12:14:11;17.90;99.90
52044;DHT22;38053;53.100;6.078;2022-07-10T12:16:41;17.80;99.90
52044;DHT22;38053;53.100;6.078;2022-07-10T12:19:08;17.80;99.90
52044;DHT22;38053;53.100;6.078;2022-07-10T12:21:35;17.90;99.90
52044;DHT22;38053;53.100;6.078;2022-07-10T12:24:01;18.00;99.90
52044;DHT22;38053;53.100;6.078;2022-07-10T12:26:38;18.20;99.90
52044;DHT22;38053;53.100;6.078;2022-07-10T12:29:04;18.30;99.90
52044;DHT22;38053;53.100;6.078;2022-07-10T12:31:32;18.50;99.90
52044;DHT22;38053;53.100;6.078;2022-07-10T12:34:00;18.70;99.90
52044;DHT22;38053;53.100;6.078;2022-07-10T12:36:49;18.80;99.90
52044;DHT22;38053;53.100;6.078;2022-07-10T12:39:17;19.00;99.90
52044;DHT22;38053;53.100;6.078;2022-07-10T12:42:03;19.10;99.90
52044;DHT22;38053;53.100;6.078;2022-07-10T12:44:40;19.30;99.90
52044;DHT22;38053;53.100;6.078;2022-07-10T12:47:10;19.40;99.90
52044;DHT22;38053;53.100;6.078;2022-07-10T12:50:03;19.60;99.90
52044;DHT22;38053;53.100;6.078;2022-07-10T12:52:37;19.60;99.90
52044;DHT22;38053;53.100;6.078;2022-07-10T12:55:10;19.60;99.90
52044;DHT22;38053;53.100;6.078;2022-07-10T13:00:21;19.80;99.90
52044;DHT22;38053;53.100;6.078;2022-07-10T13:02:47;19.90;99.90
52044;DHT22;38053;53.100;6.078;2022-07-10T13:05:27;19.80;99.90
52044;DHT22;38053;53.100;6.078;2022-07-10T13:08:07;19.70;99.90
52044;DHT22;38053;53.100;6.078;2022-07-10T13:10:34;19.80;99.90
52044;DHT22;38053;53.100;6.078;2022-07-10T13:13:02;19.80;99.90
52044;DHT22;38053;53.100;6.078;2022-07-10T13:15:29;19.90;99.90
52044;DHT22;38053;53.100;6.078;2022-07-10T13:17:56;19.90;99.90
52044;DHT22;38053;53.100;6.078;2022-07-10T13:20:21;20.00;99.90
52044;DHT22;38053;53.100;6.078;2022-07-10T13:22:47;20.20;99.90
52044;DHT22;38053;53.100;6.078;2022-07-10T13:25:12;20.40;99.90
52044;DHT22;38053;53.100;6.078;2022-07-10T13:27:38;20.60;99.90
52044;DHT22;38053;53.100;6.078;2022-07-10T13:30:05;20.70;99.90
52044;DHT22;38053;53.100;6.078;2022-07-10T13:32:31;20.70;99.90
52044;DHT22;38053;53.100;6.078;2022-07-10T13:34:58;20.70;99.90
52044;DHT22;38053;53.100;6.078;2022-07-10T13:37:24;20.60;99.90
52044;DHT22;38053;53.100;6.078;2022-07-10T13:39:50;20.50;99.90
52044;DHT22;38053;53.100;6.078;2022-07-10T13:42:16;20.40;99.90
52044;DHT22;38053;53.100;6.078;2022-07-10T13:44:41;20.40;99.90
52044;DHT22;38053;53.100;6.078;2022-07-10T13:47:07;20.30;99.90
52044;DHT22;38053;53.100;6.078;2022-07-10T13:49:33;20.40;99.90
52044;DHT22;38053;53.100;6.078;2022-07-10T13:51:58;20.50;99.90
52044;DHT22;38053;53.100;6.078;2022-07-10T13:54:24;20.50;99.90
52044;DHT22;38053;53.100;6.078;2022-07-10T13:56:50;20.60;99.90
52044;DHT22;38053;53.100;6.078;2022-07-10T13:59:16;20.70;99.90
52044;DHT22;38053;53.100;6.078;2022-07-10T14:01:41;20.90;99.90
52044;DHT22;38053;53.100;6.078;2022-07-10T14:04:07;20.90;99.90
52044;DHT22;38053;53.100;6.078;2022-07-10T14:06:33;21.00;99.90
52044;DHT22;38053;53.100;6.078;2022-07-10T14:08:59;21.00;99.90
52044;DHT22;38053;53.100;6.078;2022-07-10T14:11:25;21.10;99.90
52044;DHT22;38053;53.100;6.078;2022-07-10T14:13:51;21.30;99.90
52044;DHT22;38053;53.100;6.078;2022-07-10T14:16:17;21.40;99.90
52044;DHT22;38053;53.100;6.078;2022-07-10T14:18:42;21.60;99.90
52044;DHT22;38053;53.100;6.078;2022-07-10T14:21:11;21.60;99.90
52044;DHT22;38053;53.100;6.078;2022-07-10T14:23:39;21.60;99.90
52044;DHT22;38053;53.100;6.078;2022-07-10T14:26:07;21.50;99.90
52044;DHT22;38053;53.100;6.078;2022-07-10T14:28:33;21.30;99.90
52044;DHT22;38053;53.100;6.078;2022-07-10T14:31:01;21.20;99.90
52044;DHT22;38053;53.100;6.078;2022-07-10T14:33:33;21.10;99.90
52044;DHT22;38053;53.100;6.078;2022-07-10T14:35:59;21.00;99.90
52044;DHT22;38053;53.100;6.078;2022-07-10T14:38:25;20.90;99.90
52044;DHT22;38053;53.100;6.078;2022-07-10T14:40:51;20.80;99.90
52044;DHT22;38053;53.100;6.078;2022-07-10T14:43:19;20.80;99.90
52044;DHT22;38053;53.100;6.078;2022-07-10T14:45:45;20.90;99.90
52044;DHT22;38053;53.100;6.078;2022-07-10T14:48:11;21.00;99.90
52044;DHT22;38053;53.100;6.078;2022-07-10T14:50:37;21.20;99.90
52044;DHT22;38053;53.100;6.078;2022-07-10T14:53:02;21.40;99.90
52044;DHT22;38053;53.100;6.078;2022-07-10T14:55:28;21.50;99.90
52044;DHT22;38053;53.100;6.078;2022-07-10T14:57:54;21.60;99.90
52044;DHT22;38053;53.100;6.078;2022-07-10T15:00:19;21.70;99.90
52044;DHT22;38053;53.100;6.078;2022-07-10T15:02:45;21.70;99.90
52044;DHT22;38053;53.100;6.078;2022-07-10T15:05:11;21.70;99.90
52044;DHT22;38053;53.100;6.078;2022-07-10T15:07:37;21.70;99.90
52044;DHT22;38053;53.100;6.078;2022-07-10T15:10:02;21.60;99.90
52044;DHT22;38053;53.100;6.078;2022-07-10T15:12:28;21.50;99.90
52044;DHT22;38053;53.100;6.078;2022-07-10T15:14:57;21.40;99.90
52044;DHT22;38053;53.100;6.078;2022-07-10T15:17:22;21.20;99.90
52044;DHT22;38053;53.100;6.078;2022-07-10T15:19:48;21.20;99.90
52044;DHT22;38053;53.100;6.078;2022-07-10T15:22:14;21.10;99.90
52044;DHT22;38053;53.100;6.078;2022-07-10T15:24:39;21.00;99.90
52044;DHT22;38053;53.100;6.078;2022-07-10T15:27:07;20.90;99.90
52044;DHT22;38053;53.100;6.078;2022-07-10T15:29:32;20.90;99.90
52044;DHT22;38053;53.100;6.078;2022-07-10T15:31:58;20.80;99.90
52044;DHT22;38053;53.100;6.078;2022-07-10T15:34:24;20.80;99.90
52044;DHT22;38053;53.100;6.078;2022-07-10T15:36:49;20.70;99.90
52044;DHT22;38053;53.100;6.078;2022-07-10T15:39:15;20.60;99.90
52044;DHT22;38053;53.100;6.078;2022-07-10T15:41:41;20.50;99.90
52044;DHT22;38053;53.100;6.078;2022-07-10T15:44:12;20.60;99.90
52044;DHT22;38053;53.100;6.078;2022-07-10T15:46:38;20.60;99.90
52044;DHT22;38053;53.100;6.078;2022-07-10T15:49:03;20.70;99.90
52044;DHT22;38053;53.100;6.078;2022-07-10T15:51:30;20.70;99.90
52044;DHT22;38053;53.100;6.078;2022-07-10T15:53:56;20.60;99.90
52044;DHT22;38053;53.100;6.078;2022-07-10T15:56:22;20.50;99.90
52044;DHT22;38053;53.100;6.078;2022-07-10T15:58:48;20.50;99.90
52044;DHT22;38053;53.100;6.078;2022-07-10T16:01:15;20.50;99.90